createdAt,value
2023-03-28T00:02:17.168Z,6.72
2023-03-28T00:04:44.292Z,6.30
2023-03-28T00:07:11.983Z,6.03
2023-03-28T00:09:38.977Z,6.25
2023-03-28T00:12:06.304Z,5.43
2023-03-28T00:14:35.656Z,5.57
2023-03-28T00:17:02.645Z,5.63
2023-03-28T00:19:33.256Z,5.43
2023-03-28T00:22:00.614Z,5.88
2023-03-28T00:24:28.123Z,5.63
2023-03-28T00:26:55.099Z,5.55
2023-03-28T00:29:23.091Z,5.60
2023-03-28T00:31:51.639Z,6.03
2023-03-28T00:34:18.899Z,5.30
2023-03-28T00:36:45.935Z,4.97
2023-03-28T00:39:14.450Z,5.60
2023-03-28T00:41:44.195Z,5.18
2023-03-28T00:44:48.970Z,5.10
2023-03-28T00:47:28.041Z,5.40
2023-03-28T00:50:13.231Z,5.60
2023-03-28T00:52:47.549Z,5.65
2023-03-28T00:55:19.324Z,5.70
2023-03-28T00:57:49.112Z,5.93
2023-03-28T01:00:19.128Z,5.68
2023-03-28T01:02:53.591Z,5.40
2023-03-28T01:05:26.511Z,5.75
2023-03-28T01:07:59.312Z,5.63
2023-03-28T01:10:26.535Z,6.03
2023-03-28T01:12:56.390Z,5.18
2023-03-28T01:15:24.332Z,5.30
2023-03-28T01:18:03.083Z,5.60
2023-03-28T01:20:42.305Z,5.85
2023-03-28T01:23:33.984Z,5.88
2023-03-28T01:26:32.617Z,5.55
2023-03-28T01:29:27.697Z,5.18
2023-03-28T01:32:39.157Z,5.65
2023-03-28T01:35:24.997Z,5.95
2023-03-28T01:38:04.176Z,5.25
2023-03-28T01:41:11.628Z,5.28
2023-03-28T01:44:04.778Z,5.20
2023-03-28T01:46:44.559Z,5.50
2023-03-28T01:49:20.323Z,5.00
2023-03-28T01:52:02.482Z,5.80
2023-03-28T01:54:52.438Z,5.93
2023-03-28T01:57:26.625Z,5.07
2023-03-28T02:00:15.849Z,5.32
2023-03-28T02:03:05.909Z,6.13
2023-03-28T02:05:41.653Z,5.80
2023-03-28T02:08:14.336Z,6.50
2023-03-28T02:10:47.025Z,6.05
2023-03-28T02:13:56.250Z,5.65
2023-03-28T02:17:04.869Z,5.60
2023-03-28T02:19:55.554Z,4.97
2023-03-28T02:22:45.242Z,5.55
2023-03-28T02:25:36.656Z,5.50
2023-03-28T02:28:24.213Z,5.65
2023-03-28T02:31:11.562Z,4.88
2023-03-28T02:33:45.007Z,5.40
2023-03-28T02:36:34.379Z,5.85
2023-03-28T02:39:15.043Z,5.43
2023-03-28T02:42:03.344Z,5.82
2023-03-28T02:44:44.727Z,5.90
2023-03-28T02:47:29.992Z,5.70
2023-03-28T02:50:15.126Z,6.55
2023-03-28T02:52:52.550Z,6.03
2023-03-28T02:55:34.525Z,5.80
2023-03-28T02:59:24.606Z,6.15
2023-03-28T03:01:52.058Z,5.90
2023-03-28T03:04:19.331Z,6.20
2023-03-28T03:06:46.413Z,5.45
2023-03-28T03:09:13.396Z,6.15
2023-03-28T03:11:42.652Z,6.40
2023-03-28T03:14:09.735Z,5.43
2023-03-28T03:16:38.765Z,6.03
2023-03-28T03:19:07.759Z,6.95
2023-03-28T03:21:36.603Z,6.55
2023-03-28T03:24:04.322Z,6.43
2023-03-28T03:26:31.606Z,6.70
2023-03-28T03:29:01.710Z,6.78
2023-03-28T03:31:32.249Z,7.00
2023-03-28T03:34:02.232Z,5.95
2023-03-28T03:36:34.210Z,7.90
2023-03-28T03:39:01.699Z,8.52
2023-03-28T03:41:29.558Z,9.55
2023-03-28T03:43:56.522Z,8.68
2023-03-28T03:46:23.656Z,8.52
2023-03-28T03:48:52.057Z,8.70
2023-03-28T03:51:19.250Z,7.22
2023-03-28T03:53:50.878Z,8.20
2023-03-28T03:56:21.331Z,7.45
2023-03-28T03:59:00.501Z,7.13
2023-03-28T04:01:31.180Z,7.25
2023-03-28T04:04:24.512Z,7.15
2023-03-28T04:07:15.549Z,7.40
2023-03-28T04:09:43.410Z,6.60
2023-03-28T04:12:11.638Z,7.10
2023-03-28T04:14:45.940Z,6.55
2023-03-28T04:17:35.011Z,7.32
2023-03-28T04:20:17.548Z,7.13
2023-03-28T04:23:06.228Z,7.28
2023-03-28T04:25:34.961Z,6.53
2023-03-28T04:28:16.929Z,7.43
2023-03-28T04:31:00.275Z,8.20
2023-03-28T04:33:45.886Z,8.13
2023-03-28T04:36:18.767Z,9.02
2023-03-28T04:38:58.340Z,9.10
2023-03-28T04:41:46.280Z,9.70
2023-03-28T04:44:29.419Z,9.77
2023-03-28T04:47:03.484Z,9.00
2023-03-28T04:49:31.520Z,9.20
2023-03-28T04:51:58.557Z,10.48
2023-03-28T04:54:25.664Z,9.40
2023-03-28T04:57:08.259Z,10.00
2023-03-28T04:59:42.479Z,9.30
2023-03-28T05:02:11.711Z,9.20
2023-03-28T05:04:58.908Z,9.73
2023-03-28T05:07:26.424Z,9.75
2023-03-28T05:09:54.134Z,9.45
2023-03-28T05:12:21.380Z,9.52
2023-03-28T05:15:03.228Z,9.32
2023-03-28T05:17:31.342Z,10.27
2023-03-28T05:20:09.979Z,8.43
2023-03-28T05:22:47.498Z,7.40
2023-03-28T05:25:14.544Z,7.78
2023-03-28T05:27:41.937Z,7.38
2023-03-28T05:30:10.474Z,6.78
2023-03-28T05:32:38.918Z,7.30
2023-03-28T05:35:12.753Z,6.10
2023-03-28T05:37:41.817Z,6.22
2023-03-28T05:40:12.034Z,6.30
2023-03-28T05:42:41.536Z,6.10
2023-03-28T05:45:15.585Z,6.07
2023-03-28T05:48:06.329Z,6.50
2023-03-28T05:50:36.504Z,5.68
2023-03-28T05:53:06.934Z,6.43
2023-03-28T05:55:35.655Z,8.18
2023-03-28T05:58:04.472Z,7.53
2023-03-28T06:00:37.667Z,6.97
2023-03-28T06:03:07.889Z,7.35
2023-03-28T06:05:39.083Z,7.78
2023-03-28T06:08:18.257Z,7.82
2023-03-28T06:10:45.321Z,7.75
2023-03-28T06:13:34.772Z,7.68
2023-03-28T06:16:03.011Z,6.43
2023-03-28T06:18:33.349Z,5.45
2023-03-28T06:21:01.158Z,6.20
2023-03-28T06:23:28.780Z,7.10
2023-03-28T06:25:56.908Z,7.00
2023-03-28T06:28:25.561Z,7.68
2023-03-28T06:31:15.874Z,7.28
2023-03-28T06:33:44.481Z,7.07
2023-03-28T06:36:12.188Z,6.90
2023-03-28T06:38:39.261Z,6.18
2023-03-28T06:41:06.635Z,7.05
2023-03-28T06:43:35.807Z,6.72
2023-03-28T06:46:13.826Z,6.20
2023-03-28T06:48:44.548Z,6.80
2023-03-28T06:51:40.873Z,6.55
2023-03-28T06:54:07.829Z,5.82
2023-03-28T06:56:34.997Z,6.45
2023-03-28T06:59:02.070Z,5.95
2023-03-28T07:01:32.147Z,6.43
2023-03-28T07:04:09.661Z,5.97
2023-03-28T07:06:37.526Z,8.25
2023-03-28T07:09:06.345Z,8.07
2023-03-28T07:11:40.556Z,9.93
2023-03-28T07:14:07.579Z,8.85
2023-03-28T07:16:34.585Z,7.72
2023-03-28T07:19:01.566Z,6.35
2023-03-28T07:21:32.978Z,5.70
2023-03-28T07:24:02.638Z,6.30
2023-03-28T07:26:39.288Z,5.90
2023-03-28T07:29:08.871Z,6.95
2023-03-28T07:31:36.225Z,5.22
2023-03-28T07:34:03.447Z,4.70
2023-03-28T07:36:30.581Z,5.85
2023-03-28T07:39:06.725Z,4.60
2023-03-28T07:41:33.978Z,6.07
2023-03-28T07:44:01.191Z,6.05
2023-03-28T07:46:28.445Z,22.73
2023-03-28T07:48:56.908Z,10.15
2023-03-28T07:51:24.444Z,7.55
2023-03-28T07:53:51.926Z,6.40
2023-03-28T07:56:18.977Z,7.30
2023-03-28T07:59:10.469Z,7.80
2023-03-28T08:01:38.243Z,7.55
2023-03-28T08:04:05.360Z,7.70
2023-03-28T08:07:02.395Z,7.00
2023-03-28T08:09:29.416Z,7.13
2023-03-28T08:12:09.263Z,7.05
2023-03-28T08:14:36.249Z,7.15
2023-03-28T08:17:03.723Z,5.55
2023-03-28T08:19:33.451Z,5.05
2023-03-28T08:22:12.774Z,4.50
2023-03-28T08:24:57.157Z,4.90
2023-03-28T08:27:24.990Z,5.03
2023-03-28T08:29:58.217Z,5.22
2023-03-28T08:32:27.053Z,6.70
2023-03-28T08:34:57.821Z,5.72
2023-03-28T08:37:27.964Z,5.80
2023-03-28T08:39:56.070Z,4.93
2023-03-28T08:42:23.304Z,4.90
2023-03-28T08:45:16.525Z,5.93
2023-03-28T08:48:21.503Z,5.25
2023-03-28T08:51:06.971Z,4.75
2023-03-28T08:53:41.075Z,5.50
2023-03-28T08:56:09.033Z,5.07
2023-03-28T08:58:51.550Z,4.20
2023-03-28T09:01:22.314Z,4.57
2023-03-28T09:03:50.501Z,4.25
2023-03-28T09:06:29.625Z,4.60
2023-03-28T09:09:08.575Z,4.15
2023-03-28T09:12:02.586Z,4.63
2023-03-28T09:14:45.702Z,4.53
2023-03-28T09:17:31.408Z,3.95
2023-03-28T09:20:11.559Z,4.55
2023-03-28T09:23:24.730Z,4.70
2023-03-28T09:26:17.261Z,6.15
2023-03-28T09:29:10.453Z,6.63
2023-03-28T09:31:46.849Z,5.95
2023-03-28T09:34:27.776Z,6.65
2023-03-28T09:37:38.211Z,7.85
2023-03-28T09:40:19.469Z,9.13
2023-03-28T09:43:36.742Z,9.43
2023-03-28T09:46:30.428Z,7.60
2023-03-28T09:49:25.312Z,7.22
2023-03-28T09:52:23.928Z,9.23
2023-03-28T09:54:51.232Z,9.25
2023-03-28T09:57:18.228Z,9.82
2023-03-28T09:59:58.793Z,12.30
2023-03-28T10:02:33.982Z,10.82
2023-03-28T10:05:34.180Z,12.35
2023-03-28T10:08:40.372Z,12.32
2023-03-28T10:11:24.034Z,10.88
2023-03-28T10:13:53.350Z,10.52
2023-03-28T10:16:29.225Z,9.40
2023-03-28T10:19:14.134Z,9.60
2023-03-28T10:22:12.984Z,10.65
2023-03-28T10:24:48.057Z,13.80
2023-03-28T10:27:29.822Z,13.88
2023-03-28T10:29:58.870Z,13.95
2023-03-28T10:32:32.365Z,13.48
2023-03-28T10:35:30.261Z,11.38
2023-03-28T10:38:20.328Z,9.50
2023-03-28T10:41:27.724Z,10.02
2023-03-28T10:44:27.302Z,10.45
2023-03-28T10:47:16.541Z,10.23
2023-03-28T10:49:54.151Z,10.00
2023-03-28T10:52:33.946Z,8.93
2023-03-28T10:55:13.962Z,9.27
2023-03-28T10:58:15.813Z,11.27
2023-03-28T11:01:04.688Z,10.65
2023-03-28T11:03:46.892Z,9.13
2023-03-28T11:06:41.381Z,9.18
2023-03-28T11:09:22.461Z,9.40
2023-03-28T11:12:55.509Z,7.60
2023-03-28T11:15:44.725Z,6.72
2023-03-28T11:18:33.139Z,6.53
2023-03-28T11:21:27.059Z,7.85
2023-03-28T11:24:27.998Z,6.68
2023-03-28T11:27:16.072Z,6.43
2023-03-28T11:30:18.528Z,6.38
2023-03-28T11:33:11.346Z,5.82
2023-03-28T11:35:44.399Z,6.22
2023-03-28T11:38:37.074Z,7.40
2023-03-28T11:41:19.215Z,5.78
2023-03-28T11:44:22.095Z,5.60
2023-03-28T11:46:55.970Z,6.22
2023-03-28T11:49:46.010Z,6.68
2023-03-28T11:52:44.685Z,6.93
2023-03-28T11:55:19.054Z,6.53
2023-03-28T11:57:55.064Z,6.20
2023-03-28T12:00:49.040Z,4.88
2023-03-28T12:03:54.734Z,5.70
2023-03-28T12:06:32.983Z,7.15
2023-03-28T12:09:08.103Z,5.32
2023-03-28T12:11:43.195Z,5.72
2023-03-28T12:14:22.536Z,5.43
2023-03-28T12:16:53.364Z,7.38
2023-03-28T12:19:34.030Z,6.43
2023-03-28T12:22:16.354Z,6.97
2023-03-28T12:24:54.830Z,7.25
2023-03-28T12:27:39.018Z,6.10
2023-03-28T12:30:21.342Z,5.72
2023-03-28T12:33:05.440Z,6.10
2023-03-28T12:35:39.810Z,6.32
2023-03-28T12:38:34.230Z,6.30
2023-03-28T12:41:26.778Z,6.55
2023-03-28T12:43:59.585Z,6.43
2023-03-28T12:46:46.382Z,6.57
2023-03-28T12:49:19.013Z,6.35
2023-03-28T12:51:53.503Z,7.00
2023-03-28T12:54:31.965Z,7.25
2023-03-28T12:57:07.810Z,6.82
2023-03-28T13:00:07.900Z,8.18
2023-03-28T13:02:58.407Z,6.30
2023-03-28T13:05:38.750Z,6.78
2023-03-28T13:08:46.605Z,8.52
2023-03-28T13:11:20.209Z,8.10
2023-03-28T13:14:12.354Z,7.00
2023-03-28T13:17:01.643Z,7.68
2023-03-28T13:19:44.557Z,8.43
2023-03-28T13:22:33.434Z,9.55
2023-03-28T13:25:32.682Z,7.72
2023-03-28T13:28:11.763Z,8.20
2023-03-28T13:30:46.375Z,9.00
2023-03-28T13:33:24.289Z,9.93
2023-03-28T13:36:00.693Z,9.95
2023-03-28T13:38:27.911Z,9.55
2023-03-28T13:41:06.434Z,9.77
2023-03-28T13:43:35.867Z,9.52
2023-03-28T13:46:15.291Z,9.32
2023-03-28T13:49:10.436Z,10.25
2023-03-28T13:51:43.404Z,9.00
2023-03-28T13:54:11.928Z,9.38
2023-03-28T13:56:43.716Z,8.52
2023-03-28T13:59:22.056Z,9.30
2023-03-28T14:01:53.895Z,9.65
2023-03-28T14:04:26.663Z,8.85
2023-03-28T14:06:55.684Z,7.38
2023-03-28T14:09:28.961Z,7.65
2023-03-28T14:12:09.858Z,7.65
2023-03-28T14:14:42.788Z,7.40
2023-03-28T14:17:17.614Z,6.32
2023-03-28T14:19:53.230Z,6.55
2023-03-28T14:22:24.303Z,6.82
2023-03-28T14:24:54.292Z,6.50
2023-03-28T14:27:37.352Z,5.65
2023-03-28T14:30:16.658Z,5.72
2023-03-28T14:32:57.577Z,5.47
2023-03-28T14:35:28.557Z,4.93
2023-03-28T14:37:58.178Z,5.05
2023-03-28T14:40:25.055Z,5.57
2023-03-28T14:42:59.841Z,4.45
2023-03-28T14:45:28.675Z,5.20
2023-03-28T14:47:57.530Z,4.85
2023-03-28T14:50:29.642Z,4.15
2023-03-28T14:53:08.018Z,4.30
2023-03-28T14:55:37.735Z,3.70
2023-03-28T14:58:12.878Z,4.00
2023-03-28T15:00:48.707Z,3.65
2023-03-28T15:03:19.068Z,4.25
2023-03-28T15:05:49.958Z,3.58
2023-03-28T15:08:31.691Z,3.60
2023-03-28T15:11:06.572Z,3.30
2023-03-28T15:13:38.949Z,3.00
2023-03-28T15:16:08.268Z,3.00
2023-03-28T15:18:47.244Z,3.17
2023-03-28T15:21:15.341Z,3.00
2023-03-28T15:23:59.577Z,2.90
2023-03-28T15:26:51.224Z,2.97
2023-03-28T15:29:21.765Z,3.15
2023-03-28T15:31:49.109Z,2.83
2023-03-28T15:34:26.390Z,2.70
2023-03-28T15:37:06.982Z,2.75
2023-03-28T15:39:36.107Z,3.17
2023-03-28T15:42:24.404Z,3.10
2023-03-28T15:44:57.076Z,2.80
2023-03-28T15:47:27.183Z,3.03
2023-03-28T15:50:12.848Z,3.00
2023-03-28T15:52:42.767Z,3.00
2023-03-28T15:55:20.846Z,3.08
2023-03-28T15:57:48.383Z,2.42
2023-03-28T16:00:46.462Z,3.20
2023-03-28T16:05:50.621Z,3.50
2023-03-28T16:08:25.736Z,3.65
2023-03-28T16:10:52.721Z,3.28
2023-03-28T16:13:40.122Z,7.65
2023-03-28T16:16:08.123Z,4.05
2023-03-28T16:18:48.234Z,4.10
2023-03-28T16:21:16.275Z,4.30
2023-03-28T16:23:43.360Z,4.00
2023-03-28T16:26:11.304Z,4.32
2023-03-28T16:28:38.412Z,4.28
2023-03-28T16:31:05.865Z,4.10
2023-03-28T16:33:32.863Z,4.32
2023-03-28T16:36:00.386Z,4.22
2023-03-28T16:38:27.946Z,4.60
2023-03-28T16:40:54.994Z,5.10
2023-03-28T16:43:21.937Z,4.65
2023-03-28T16:45:50.294Z,5.43
2023-03-28T16:48:17.466Z,4.90
2023-03-28T16:50:59.408Z,5.55
2023-03-28T16:53:26.416Z,4.93
2023-03-28T16:55:53.491Z,4.32
2023-03-28T16:58:20.550Z,4.72
2023-03-28T17:00:50.791Z,4.53
2023-03-28T17:03:18.210Z,5.60
2023-03-28T17:05:45.385Z,4.38
2023-03-28T17:08:12.462Z,5.00
2023-03-28T17:10:43.566Z,4.70
2023-03-28T17:13:11.273Z,4.75
2023-03-28T17:15:38.328Z,5.88
2023-03-28T17:18:08.180Z,5.07
2023-03-28T17:20:35.554Z,5.50
2023-03-28T17:23:04.913Z,5.25
2023-03-28T17:25:36.788Z,5.70
2023-03-28T17:28:08.917Z,5.88
2023-03-28T17:30:37.324Z,5.53
2023-03-28T17:33:04.941Z,5.53
2023-03-28T17:35:32.187Z,6.53
2023-03-28T17:37:59.231Z,6.10
2023-03-28T17:40:26.587Z,5.75
2023-03-28T17:42:53.694Z,5.53
2023-03-28T17:45:21.155Z,5.63
2023-03-28T17:47:48.737Z,5.38
2023-03-28T17:50:15.820Z,6.03
2023-03-28T17:52:42.884Z,6.07
2023-03-28T17:55:09.967Z,7.22
2023-03-28T17:57:37.161Z,6.55
2023-03-28T18:00:06.736Z,6.60
2023-03-28T18:02:45.956Z,7.35
2023-03-28T18:05:33.570Z,6.45
2023-03-28T18:08:01.059Z,6.03
2023-03-28T18:10:28.058Z,6.15
2023-03-28T18:12:55.065Z,6.80
2023-03-28T18:15:22.033Z,5.97
2023-03-28T18:17:49.116Z,6.78
2023-03-28T18:20:16.339Z,6.22
2023-03-28T18:22:43.492Z,7.70
2023-03-28T18:25:10.799Z,6.53
2023-03-28T18:27:38.319Z,7.25
2023-03-28T18:30:08.431Z,6.32
2023-03-28T18:32:36.710Z,5.75
2023-03-28T18:35:07.289Z,7.07
2023-03-28T18:37:34.547Z,8.93
2023-03-28T18:40:01.847Z,7.95
2023-03-28T18:42:30.655Z,7.10
2023-03-28T18:44:57.999Z,7.22
2023-03-28T18:47:25.134Z,6.55
2023-03-28T18:49:52.439Z,6.57
2023-03-28T18:52:19.545Z,6.63
2023-03-28T18:54:48.179Z,6.22
2023-03-28T18:57:16.165Z,6.95
2023-03-28T18:59:43.197Z,6.22
2023-03-28T19:02:13.896Z,7.18
2023-03-28T19:04:40.949Z,6.78
2023-03-28T19:07:08.625Z,6.55
2023-03-28T19:09:36.026Z,7.18
2023-03-28T19:12:03.110Z,6.97
2023-03-28T19:14:30.663Z,7.95
2023-03-28T19:16:57.735Z,6.78
2023-03-28T19:19:25.042Z,6.63
2023-03-28T19:21:52.709Z,7.18
2023-03-28T19:24:23.542Z,6.82
2023-03-28T19:26:51.137Z,8.55
2023-03-28T19:29:18.132Z,7.25
2023-03-28T19:31:46.016Z,7.25
2023-03-28T19:34:17.646Z,6.68
2023-03-28T19:36:44.918Z,6.53
2023-03-28T19:39:12.598Z,8.00
2023-03-28T19:41:40.007Z,8.43
2023-03-28T19:44:07.192Z,7.93
2023-03-28T19:46:36.367Z,7.30
2023-03-28T19:49:06.573Z,7.72
2023-03-28T19:51:34.449Z,8.38
2023-03-28T19:54:01.632Z,9.18
2023-03-28T19:56:29.064Z,8.68
2023-03-28T19:58:56.229Z,22.45
2023-03-28T20:01:23.291Z,10.38
2023-03-28T20:03:53.243Z,9.50
2023-03-28T20:06:22.451Z,9.65
2023-03-28T20:08:50.810Z,9.98
2023-03-28T20:11:18.025Z,9.57
2023-03-28T20:13:45.206Z,9.20
2023-03-28T20:16:13.272Z,9.77
2023-03-28T20:18:41.080Z,9.00
2023-03-28T20:21:11.095Z,10.68
2023-03-28T20:23:38.355Z,9.75
2023-03-28T20:26:19.961Z,9.60
2023-03-28T20:28:49.970Z,9.63
2023-03-28T20:31:18.436Z,9.35
2023-03-28T20:33:46.293Z,9.43
2023-03-28T20:36:13.461Z,9.40
2023-03-28T20:38:40.606Z,10.48
2023-03-28T20:41:12.538Z,10.73
2023-03-28T20:43:40.995Z,10.50
2023-03-28T20:46:09.831Z,10.93
2023-03-28T20:48:37.040Z,10.90
2023-03-28T20:51:19.294Z,9.48
2023-03-28T20:54:00.623Z,9.93
2023-03-28T20:56:30.074Z,10.13
2023-03-28T20:58:58.931Z,13.07
2023-03-28T21:01:28.479Z,9.88
2023-03-28T21:03:58.302Z,8.93
2023-03-28T21:06:29.042Z,9.80
2023-03-28T21:09:01.949Z,8.07
2023-03-28T21:11:31.620Z,9.80
2023-03-28T21:14:00.480Z,9.32
2023-03-28T21:16:29.124Z,8.90
2023-03-28T21:18:56.274Z,10.57
2023-03-28T21:21:23.685Z,10.38
2023-03-28T21:23:53.262Z,8.52
2023-03-28T21:26:23.056Z,9.73
2023-03-28T21:28:52.469Z,9.23
2023-03-28T21:31:22.114Z,8.93
2023-03-28T21:33:49.213Z,9.35
2023-03-28T21:36:18.326Z,10.80
2023-03-28T21:38:46.866Z,9.57
2023-03-28T21:41:14.076Z,9.55
2023-03-28T21:43:41.214Z,9.30
2023-03-28T21:46:09.394Z,8.90
2023-03-28T21:48:36.895Z,8.82
2023-03-28T21:51:04.827Z,7.82
2023-03-28T21:53:37.226Z,8.13
2023-03-28T21:56:04.913Z,8.73
2023-03-28T21:58:33.469Z,9.00
2023-03-28T22:01:02.857Z,8.82
2023-03-28T22:03:31.061Z,8.57
2023-03-28T22:05:58.392Z,8.10
2023-03-28T22:08:25.639Z,7.97
2023-03-28T22:10:56.758Z,7.28
2023-03-28T22:13:24.229Z,8.40
2023-03-28T22:15:52.786Z,7.60
2023-03-28T22:18:20.185Z,7.47
2023-03-28T22:20:53.284Z,8.35
2023-03-28T22:23:24.594Z,7.70
2023-03-28T22:25:53.180Z,7.10
2023-03-28T22:28:24.611Z,7.93
2023-03-28T22:30:56.325Z,8.15
2023-03-28T22:33:25.405Z,8.55
2023-03-28T22:35:53.184Z,9.02
2023-03-28T22:38:20.408Z,8.00
2023-03-28T22:40:47.777Z,8.27
2023-03-28T22:43:15.601Z,8.48
2023-03-28T22:45:43.094Z,7.97
2023-03-28T22:48:16.246Z,7.95
2023-03-28T22:50:47.323Z,8.02
2023-03-28T22:53:15.233Z,8.43
2023-03-28T22:55:43.909Z,7.80
2023-03-28T22:58:11.863Z,15.15
2023-03-28T23:00:39.008Z,9.57
2023-03-28T23:03:08.064Z,8.55
2023-03-28T23:05:35.797Z,7.10
2023-03-28T23:08:02.991Z,8.45
2023-03-28T23:10:30.009Z,8.68
2023-03-28T23:12:56.984Z,8.50
2023-03-28T23:15:24.197Z,8.50
2023-03-28T23:17:52.213Z,8.48
2023-03-28T23:20:19.786Z,7.63
2023-03-28T23:22:48.650Z,8.77
2023-03-28T23:25:18.811Z,8.05
2023-03-28T23:27:46.637Z,7.97
2023-03-28T23:30:15.273Z,8.05
2023-03-28T23:32:42.411Z,8.10
2023-03-28T23:35:10.835Z,7.85
2023-03-28T23:37:38.546Z,8.45
2023-03-28T23:40:10.624Z,8.05
2023-03-28T23:42:39.155Z,8.75
2023-03-28T23:45:06.901Z,9.10
2023-03-28T23:47:33.967Z,8.00
2023-03-28T23:50:00.958Z,7.20
2023-03-28T23:52:27.938Z,8.13
2023-03-28T23:54:54.912Z,7.97
2023-03-28T23:57:25.343Z,7.60
2023-03-28T23:59:52.416Z,6.85
